createdAt,value
2019-05-02T00:03:41.181Z,14.79
2019-05-02T00:08:45.743Z,14.69
2019-05-02T00:13:52.795Z,14.66
2019-05-02T00:18:59.375Z,14.61
2019-05-02T00:24:04.911Z,14.55
2019-05-02T00:29:10.511Z,14.42
2019-05-02T00:34:15.647Z,14.49
2019-05-02T00:39:20.719Z,14.42
2019-05-02T00:44:25.761Z,14.38
2019-05-02T00:49:35.516Z,14.42
2019-05-02T00:54:38.869Z,14.47
2019-05-02T00:59:44.819Z,14.37
2019-05-02T01:04:50.399Z,14.27
2019-05-02T01:09:55.457Z,14.23
2019-05-02T01:15:03.349Z,14.00
2019-05-02T01:20:07.681Z,14.05
2019-05-02T01:25:16.966Z,14.06
2019-05-02T01:30:45.164Z,14.04
2019-05-02T01:36:06.438Z,13.93
2019-05-02T01:41:12.421Z,13.74
2019-05-02T01:46:22.325Z,13.78
2019-05-02T01:51:24.236Z,13.49
2019-05-02T01:56:33.061Z,13.72
2019-05-02T02:01:37.686Z,13.78
2019-05-02T02:06:44.887Z,13.69
2019-05-02T02:11:50.977Z,13.47
2019-05-02T02:16:56.931Z,13.28
2019-05-02T02:22:09.128Z,13.25
2019-05-02T02:27:14.825Z,13.41
2019-05-02T02:32:26.632Z,13.33
2019-05-02T02:37:26.978Z,13.19
2019-05-02T02:42:34.201Z,13.15
2019-05-02T02:47:39.368Z,13.06
2019-05-02T02:52:46.915Z,13.08
2019-05-02T02:57:51.275Z,13.07
2019-05-02T03:02:57.248Z,13.09
2019-05-02T03:08:05.466Z,13.04
2019-05-02T03:13:27.000Z,12.87
2019-05-02T03:18:39.510Z,12.83
2019-05-02T03:23:39.575Z,12.76
2019-05-02T03:28:45.121Z,12.73
2019-05-02T03:33:59.131Z,12.60
2019-05-02T03:38:57.669Z,12.68
2019-05-02T03:44:11.233Z,12.68
2019-05-02T03:49:10.509Z,12.72
2019-05-02T03:54:19.880Z,12.59
2019-05-02T03:59:39.239Z,12.60
2019-05-02T04:04:44.305Z,12.48
2019-05-02T04:09:49.426Z,12.37
2019-05-02T04:14:56.053Z,12.06
2019-05-02T04:20:09.255Z,11.81
2019-05-02T04:25:09.047Z,11.75
2019-05-02T04:30:14.527Z,11.91
2019-05-02T04:35:19.661Z,11.86
2019-05-02T04:40:49.723Z,11.90
2019-05-02T04:45:57.450Z,11.60
2019-05-02T04:51:10.110Z,11.32
2019-05-02T04:56:10.606Z,11.39
2019-05-02T05:01:16.615Z,11.50
2019-05-02T05:06:24.040Z,11.58
2019-05-02T05:11:44.208Z,11.32
2019-05-02T05:16:51.745Z,11.41
2019-05-02T05:22:04.359Z,11.41
2019-05-02T05:27:03.368Z,11.47
2019-05-02T05:32:10.140Z,11.49
2019-05-02T05:37:17.271Z,11.49
2019-05-02T05:42:23.293Z,11.58
2019-05-02T05:47:31.745Z,11.72
2019-05-02T05:52:42.461Z,11.63
2019-05-02T05:57:49.977Z,11.85
2019-05-02T06:03:01.198Z,11.81
2019-05-02T06:08:02.534Z,11.79
2019-05-02T06:13:10.986Z,11.73
2019-05-02T06:18:15.698Z,11.66
2019-05-02T06:23:20.776Z,11.74
2019-05-02T06:28:25.929Z,11.86
2019-05-02T06:33:32.405Z,11.86
2019-05-02T06:38:37.616Z,11.83
2019-05-02T06:43:46.659Z,11.81
2019-05-02T06:48:52.387Z,11.97
2019-05-02T06:53:57.484Z,12.03
2019-05-02T06:59:04.291Z,11.96
2019-05-02T07:04:17.507Z,11.95
2019-05-02T07:09:40.293Z,11.91
2019-05-02T07:14:37.375Z,12.02
2019-05-02T07:19:46.067Z,12.08
2019-05-02T07:24:51.456Z,12.14
2019-05-02T07:29:59.564Z,12.14
2019-05-02T07:35:06.189Z,12.28
2019-05-02T07:40:12.070Z,12.49
2019-05-02T07:45:23.683Z,12.51
2019-05-02T07:50:29.136Z,12.49
2019-05-02T07:55:35.330Z,12.48
2019-05-02T08:00:41.217Z,12.56
2019-05-02T08:05:46.741Z,12.55
2019-05-02T08:10:53.803Z,12.51
2019-05-02T08:16:00.615Z,12.60
2019-05-02T08:21:07.031Z,12.73
2019-05-02T08:26:16.470Z,12.88
2019-05-02T08:31:22.397Z,13.13
2019-05-02T08:36:27.904Z,13.24
2019-05-02T08:41:33.062Z,13.21
2019-05-02T08:46:39.678Z,13.27
2019-05-02T08:51:46.337Z,13.52
2019-05-02T08:56:58.924Z,13.53
2019-05-02T09:02:00.539Z,13.57
2019-05-02T09:07:05.729Z,13.64
2019-05-02T09:12:13.246Z,13.59
2019-05-02T09:17:33.192Z,14.04
2019-05-02T09:22:28.521Z,14.33
2019-05-02T09:27:33.945Z,14.37
2019-05-02T09:32:38.965Z,14.69
2019-05-02T09:37:44.051Z,14.74
2019-05-02T09:42:53.441Z,14.90
2019-05-02T09:48:04.504Z,15.34
2019-05-02T09:53:02.799Z,15.44
2019-05-02T09:58:10.514Z,15.70
2019-05-02T10:03:16.504Z,15.94
2019-05-02T10:08:23.644Z,15.93
2019-05-02T10:13:29.037Z,16.20
2019-05-02T10:18:34.193Z,16.85
2019-05-02T10:23:39.542Z,16.76
2019-05-02T10:28:49.425Z,16.71
2019-05-02T10:33:52.948Z,17.12
2019-05-02T10:38:59.366Z,17.41
2019-05-02T10:44:08.383Z,17.85
2019-05-02T10:49:26.059Z,17.54
2019-05-02T10:54:33.637Z,17.57
2019-05-02T10:59:38.753Z,17.73
2019-05-02T11:04:48.418Z,17.70
2019-05-02T11:09:57.227Z,18.06
2019-05-02T11:15:13.055Z,17.81
2019-05-02T11:20:18.097Z,17.54
2019-05-02T11:25:23.585Z,17.70
2019-05-02T11:30:28.681Z,17.37
2019-05-02T11:35:34.298Z,17.59
2019-05-02T11:40:39.415Z,17.93
2019-05-02T11:45:44.491Z,18.19
2019-05-02T11:50:49.665Z,18.34
2019-05-02T11:55:58.392Z,18.65
2019-05-02T12:01:05.210Z,18.35
2019-05-02T12:06:12.225Z,17.98
2019-05-02T12:11:17.642Z,18.27
2019-05-02T12:16:23.823Z,18.84
2019-05-02T12:21:29.551Z,19.52
2019-05-02T12:26:34.801Z,19.78
2019-05-02T12:31:40.161Z,19.85
2019-05-02T12:36:45.225Z,19.84
2019-05-02T12:41:53.317Z,19.78
2019-05-02T12:46:57.736Z,19.48
2019-05-02T12:52:03.118Z,19.82
2019-05-02T12:57:08.189Z,19.59
2019-05-02T13:02:21.546Z,19.75
2019-05-02T13:07:27.168Z,20.06
2019-05-02T13:12:35.652Z,20.03
2019-05-02T13:17:43.912Z,19.55
2019-05-02T13:23:06.437Z,19.68
2019-05-02T13:28:12.289Z,20.06
2019-05-02T13:33:27.298Z,20.45
2019-05-02T13:38:39.757Z,20.39
2019-05-02T13:43:47.418Z,20.07
2019-05-02T13:48:52.615Z,19.73
2019-05-02T13:54:02.444Z,20.13
2019-05-02T13:59:10.445Z,20.39
2019-05-02T14:04:15.172Z,20.43
2019-05-02T14:09:45.478Z,20.40
2019-05-02T14:14:51.939Z,20.26
2019-05-02T14:20:08.568Z,19.94
2019-05-02T14:25:03.948Z,19.39
2019-05-02T14:30:12.122Z,19.86
2019-05-02T14:35:37.035Z,20.07
2019-05-02T14:41:14.613Z,19.90
2019-05-02T14:46:22.380Z,19.63
2019-05-02T14:51:28.201Z,19.71
2019-05-02T14:56:52.513Z,19.46
2019-05-02T15:02:03.844Z,19.44
2019-05-02T15:07:13.021Z,19.06
2019-05-02T15:12:22.100Z,18.77
2019-05-02T15:17:33.648Z,18.71
2019-05-02T15:22:38.305Z,18.36
2019-05-02T15:27:45.282Z,18.27
2019-05-02T15:33:17.138Z,18.39
2019-05-02T15:38:27.237Z,18.34
2019-05-02T15:43:27.397Z,18.34
2019-05-02T15:48:32.654Z,18.35
2019-05-02T15:54:04.829Z,18.27
2019-05-02T15:59:04.784Z,18.33
2019-05-02T16:04:12.701Z,18.34
2019-05-02T16:09:18.425Z,18.52
2019-05-02T16:14:27.202Z,18.29
2019-05-02T16:19:33.522Z,18.29
2019-05-02T16:24:38.909Z,18.50
2019-05-02T16:29:43.994Z,18.38
2019-05-02T16:34:54.808Z,18.34
2019-05-02T16:39:59.425Z,18.43
2019-05-02T16:45:06.514Z,18.18
2019-05-02T16:50:22.872Z,18.09
2019-05-02T16:55:29.216Z,18.10
2019-05-02T17:00:37.079Z,18.18
2019-05-02T17:05:44.216Z,18.10
2019-05-02T17:10:58.875Z,17.72
2019-05-02T17:16:12.026Z,17.66
2019-05-02T17:21:12.644Z,17.60
2019-05-02T17:26:19.574Z,17.59
2019-05-02T17:31:25.331Z,17.43
2019-05-02T17:36:32.380Z,17.37
2019-05-02T17:41:42.327Z,17.27
2019-05-02T17:46:44.547Z,17.31
2019-05-02T17:52:11.233Z,17.24
2019-05-02T17:57:14.833Z,17.25
2019-05-02T18:02:21.974Z,17.12
2019-05-02T18:07:32.285Z,16.98
2019-05-02T18:12:33.998Z,17.18
2019-05-02T18:17:39.227Z,17.14
2019-05-02T18:22:48.955Z,16.98
2019-05-02T18:27:52.721Z,16.92
2019-05-02T18:33:03.593Z,16.85
2019-05-02T18:38:05.438Z,16.74
2019-05-02T18:43:10.721Z,16.65
2019-05-02T18:48:15.919Z,16.66
2019-05-02T18:53:24.333Z,16.61
2019-05-02T18:58:28.079Z,16.57
2019-05-02T19:03:33.498Z,16.66
2019-05-02T19:08:46.798Z,16.70
2019-05-02T19:13:48.024Z,16.53
2019-05-02T19:18:57.426Z,16.50
2019-05-02T19:24:02.412Z,16.43
2019-05-02T19:29:36.058Z,16.37
2019-05-02T19:34:41.892Z,16.26
2019-05-02T19:39:48.695Z,16.26
2019-05-02T19:44:54.132Z,16.21
2019-05-02T19:49:59.232Z,16.02
2019-05-02T19:55:04.887Z,15.98
2019-05-02T20:00:13.267Z,15.90
2019-05-02T20:05:24.146Z,15.84
2019-05-02T20:10:43.649Z,15.96
2019-05-02T20:15:57.173Z,16.04
2019-05-02T20:21:28.463Z,16.01
2019-05-02T20:26:33.679Z,15.90
2019-05-02T20:31:38.731Z,15.78
2019-05-02T20:36:44.255Z,15.50
2019-05-02T20:42:02.810Z,15.30
2019-05-02T20:47:08.643Z,15.20
2019-05-02T20:52:13.904Z,15.13
2019-05-02T20:57:19.285Z,15.01
2019-05-02T21:02:29.470Z,14.87
2019-05-02T21:07:54.412Z,14.89
2019-05-02T21:13:02.072Z,14.96
2019-05-02T21:18:08.407Z,14.86
2019-05-02T21:23:13.607Z,14.62
2019-05-02T21:28:18.872Z,14.45
2019-05-02T21:33:42.919Z,14.40
2019-05-02T21:38:49.605Z,14.36
2019-05-02T21:43:55.159Z,14.50
2019-05-02T21:49:00.305Z,14.50
2019-05-02T21:54:23.498Z,14.56
2019-05-02T21:59:29.625Z,14.70
2019-05-02T22:04:34.822Z,14.34
2019-05-02T22:09:41.648Z,14.32
2019-05-02T22:14:46.991Z,14.45
2019-05-02T22:19:52.601Z,14.39
2019-05-02T22:24:58.112Z,14.33
2019-05-02T22:30:03.346Z,14.44
2019-05-02T22:35:08.634Z,14.49
2019-05-02T22:40:15.165Z,14.47
2019-05-02T22:45:21.802Z,14.48
2019-05-02T22:50:27.042Z,14.34
2019-05-02T22:55:32.202Z,14.25
2019-05-02T23:00:37.248Z,14.20
2019-05-02T23:05:43.468Z,14.30
2019-05-02T23:10:48.896Z,14.29
2019-05-02T23:15:54.356Z,14.18
2019-05-02T23:20:59.410Z,14.22
2019-05-02T23:26:17.006Z,14.16
2019-05-02T23:31:22.578Z,14.03
2019-05-02T23:36:29.342Z,14.09
2019-05-02T23:41:35.744Z,14.14
2019-05-02T23:46:42.441Z,14.10
2019-05-02T23:51:48.013Z,14.05
2019-05-02T23:56:53.132Z,13.96
